sensor_id;sensor_type;location;lat;lon;timestamp;P1;durP1;ratioP1;P2;durP2;ratioP2
63690;SDS011;49837;57.280;27.070;2024-01-07T00:00:02;12.7;;;5.5;;
63690;SDS011;49837;57.280;27.070;2024-01-07T00:01:03;13.9;;;5.4;;
63690;SDS011;49837;57.280;27.070;2024-01-07T00:02:03;13.2;;;6.3;;
63690;SDS011;49837;57.280;27.070;2024-01-07T00:03:03;13.1;;;6.1;;
63690;SDS011;49837;57.280;27.070;2024-01-07T00:04:03;10.9;;;5.1;;
63690;SDS011;49837;57.280;27.070;2024-01-07T00:05:04;9.9;;;4.7;;
63690;SDS011;49837;57.280;27.070;2024-01-07T00:06:04;12.3;;;5.7;;
63690;SDS011;49837;57.280;27.070;2024-01-07T00:07:04;11.2;;;5.6;;
63690;SDS011;49837;57.280;27.070;2024-01-07T00:08:05;13.2;;;5.2;;
63690;SDS011;49837;57.280;27.070;2024-01-07T00:09:05;13.4;;;5.7;;
63690;SDS011;49837;57.280;27.070;2024-01-07T00:10:05;13.9;;;5.6;;
63690;SDS011;49837;57.280;27.070;2024-01-07T00:11:05;11.7;;;5.1;;
63690;SDS011;49837;57.280;27.070;2024-01-07T00:12:06;10.5;;;5.4;;
63690;SDS011;49837;57.280;27.070;2024-01-07T00:13:06;11.8;;;5.1;;
63690;SDS011;49837;57.280;27.070;2024-01-07T00:14:06;12.5;;;5.7;;
63690;SDS011;49837;57.280;27.070;2024-01-07T00:15:07;11.5;;;5.0;;
63690;SDS011;49837;57.280;27.070;2024-01-07T00:16:07;11.6;;;5.2;;
63690;SDS011;49837;57.280;27.070;2024-01-07T00:17:09;13.0;;;5.6;;
63690;SDS011;49837;57.280;27.070;2024-01-07T00:18:08;12.3;;;5.7;;
63690;SDS011;49837;57.280;27.070;2024-01-07T00:19:08;12.8;;;5.4;;
63690;SDS011;49837;57.280;27.070;2024-01-07T00:20:09;13.6;;;5.4;;
63690;SDS011;49837;57.280;27.070;2024-01-07T00:21:09;12.3;;;5.4;;
63690;SDS011;49837;57.280;27.070;2024-01-07T00:22:09;13.1;;;5.2;;
63690;SDS011;49837;57.280;27.070;2024-01-07T00:23:10;12.1;;;5.0;;
63690;SDS011;49837;57.280;27.070;2024-01-07T00:24:10;11.5;;;5.0;;
63690;SDS011;49837;57.280;27.070;2024-01-07T00:25:10;10.2;;;4.8;;
63690;SDS011;49837;57.280;27.070;2024-01-07T00:26:11;11.5;;;5.2;;
63690;SDS011;49837;57.280;27.070;2024-01-07T00:27:11;9.6;;;4.5;;
63690;SDS011;49837;57.280;27.070;2024-01-07T00:28:11;9.6;;;4.7;;
63690;SDS011;49837;57.280;27.070;2024-01-07T00:29:12;11.2;;;5.0;;
63690;SDS011;49837;57.280;27.070;2024-01-07T00:30:12;12.5;;;4.9;;
63690;SDS011;49837;57.280;27.070;2024-01-07T00:31:12;10.5;;;4.7;;
63690;SDS011;49837;57.280;27.070;2024-01-07T00:32:13;11.8;;;5.0;;
63690;SDS011;49837;57.280;27.070;2024-01-07T00:33:13;11.2;;;5.2;;
63690;SDS011;49837;57.280;27.070;2024-01-07T00:34:13;10.5;;;5.4;;
63690;SDS011;49837;57.280;27.070;2024-01-07T00:35:14;10.9;;;4.9;;
63690;SDS011;49837;57.280;27.070;2024-01-07T00:36:14;11.0;;;4.9;;
63690;SDS011;49837;57.280;27.070;2024-01-07T00:37:14;12.2;;;5.2;;
63690;SDS011;49837;57.280;27.070;2024-01-07T00:38:15;9.7;;;4.8;;
63690;SDS011;49837;57.280;27.070;2024-01-07T00:39:15;9.8;;;4.4;;
63690;SDS011;49837;57.280;27.070;2024-01-07T00:40:15;10.8;;;4.7;;
63690;SDS011;49837;57.280;27.070;2024-01-07T00:41:15;10.8;;;4.7;;
63690;SDS011;49837;57.280;27.070;2024-01-07T00:42:16;9.7;;;4.4;;
63690;SDS011;49837;57.280;27.070;2024-01-07T00:43:16;12.1;;;4.8;;
63690;SDS011;49837;57.280;27.070;2024-01-07T00:44:17;10.5;;;4.5;;
63690;SDS011;49837;57.280;27.070;2024-01-07T00:45:20;9.5;;;4.1;;
63690;SDS011;49837;57.280;27.070;2024-01-07T00:46:18;10.0;;;4.3;;
63690;SDS011;49837;57.280;27.070;2024-01-07T00:47:18;9.4;;;4.1;;
63690;SDS011;49837;57.280;27.070;2024-01-07T00:48:18;9.8;;;4.0;;
63690;SDS011;49837;57.280;27.070;2024-01-07T00:49:19;10.0;;;4.2;;
63690;SDS011;49837;57.280;27.070;2024-01-07T00:50:19;11.1;;;4.5;;
63690;SDS011;49837;57.280;27.070;2024-01-07T00:51:19;8.6;;;4.2;;
63690;SDS011;49837;57.280;27.070;2024-01-07T00:52:20;9.1;;;4.5;;
63690;SDS011;49837;57.280;27.070;2024-01-07T00:53:20;10.6;;;4.9;;
63690;SDS011;49837;57.280;27.070;2024-01-07T00:54:20;9.2;;;4.3;;
63690;SDS011;49837;57.280;27.070;2024-01-07T00:55:21;9.8;;;4.1;;
63690;SDS011;49837;57.280;27.070;2024-01-07T00:56:21;10.5;;;4.9;;
63690;SDS011;49837;57.280;27.070;2024-01-07T00:57:22;10.5;;;4.8;;
63690;SDS011;49837;57.280;27.070;2024-01-07T00:58:22;10.8;;;4.6;;
63690;SDS011;49837;57.280;27.070;2024-01-07T00:59:22;9.5;;;4.6;;
63690;SDS011;49837;57.280;27.070;2024-01-07T01:00:23;10.6;;;4.5;;
63690;SDS011;49837;57.280;27.070;2024-01-07T01:01:23;9.2;;;4.6;;
63690;SDS011;49837;57.280;27.070;2024-01-07T01:02:23;11.5;;;4.8;;
63690;SDS011;49837;57.280;27.070;2024-01-07T01:03:24;9.8;;;4.4;;
63690;SDS011;49837;57.280;27.070;2024-01-07T01:04:24;10.8;;;4.9;;
63690;SDS011;49837;57.280;27.070;2024-01-07T01:05:24;8.4;;;3.9;;
63690;SDS011;49837;57.280;27.070;2024-01-07T01:06:25;10.4;;;4.8;;
63690;SDS011;49837;57.280;27.070;2024-01-07T01:07:25;11.5;;;4.5;;
63690;SDS011;49837;57.280;27.070;2024-01-07T01:08:26;8.4;;;4.4;;
63690;SDS011;49837;57.280;27.070;2024-01-07T01:09:27;10.5;;;4.7;;
63690;SDS011;49837;57.280;27.070;2024-01-07T01:10:26;9.9;;;4.4;;
63690;SDS011;49837;57.280;27.070;2024-01-07T01:11:26;9.6;;;4.6;;
63690;SDS011;49837;57.280;27.070;2024-01-07T01:12:27;9.8;;;4.3;;
63690;SDS011;49837;57.280;27.070;2024-01-07T01:13:27;11.2;;;4.4;;
63690;SDS011;49837;57.280;27.070;2024-01-07T01:14:27;8.8;;;4.3;;
63690;SDS011;49837;57.280;27.070;2024-01-07T01:15:28;8.2;;;4.0;;
63690;SDS011;49837;57.280;27.070;2024-01-07T01:16:28;8.6;;;4.2;;
63690;SDS011;49837;57.280;27.070;2024-01-07T01:17:29;8.2;;;4.1;;
63690;SDS011;49837;57.280;27.070;2024-01-07T01:18:29;9.4;;;4.3;;
63690;SDS011;49837;57.280;27.070;2024-01-07T01:19:29;8.5;;;3.7;;
63690;SDS011;49837;57.280;27.070;2024-01-07T01:20:30;8.1;;;4.0;;
63690;SDS011;49837;57.280;27.070;2024-01-07T01:21:30;7.1;;;3.3;;
63690;SDS011;49837;57.280;27.070;2024-01-07T01:22:30;7.9;;;3.6;;
63690;SDS011;49837;57.280;27.070;2024-01-07T01:23:31;7.7;;;3.8;;
63690;SDS011;49837;57.280;27.070;2024-01-07T01:24:31;8.0;;;3.6;;
63690;SDS011;49837;57.280;27.070;2024-01-07T01:25:31;6.8;;;3.4;;
63690;SDS011;49837;57.280;27.070;2024-01-07T01:26:32;8.0;;;3.7;;
63690;SDS011;49837;57.280;27.070;2024-01-07T01:27:32;11.1;;;3.9;;
63690;SDS011;49837;57.280;27.070;2024-01-07T01:28:32;8.5;;;3.8;;
63690;SDS011;49837;57.280;27.070;2024-01-07T01:29:33;10.0;;;3.7;;
63690;SDS011;49837;57.280;27.070;2024-01-07T01:30:33;7.4;;;3.5;;
63690;SDS011;49837;57.280;27.070;2024-01-07T01:31:34;9.2;;;3.7;;
63690;SDS011;49837;57.280;27.070;2024-01-07T01:32:34;5.1;;;2.9;;
63690;SDS011;49837;57.280;27.070;2024-01-07T01:33:34;7.5;;;3.1;;
63690;SDS011;49837;57.280;27.070;2024-01-07T01:34:35;7.2;;;3.5;;
63690;SDS011;49837;57.280;27.070;2024-01-07T01:35:35;6.7;;;3.4;;
63690;SDS011;49837;57.280;27.070;2024-01-07T01:36:36;7.3;;;3.5;;
63690;SDS011;49837;57.280;27.070;2024-01-07T01:37:36;8.1;;;3.7;;
63690;SDS011;49837;57.280;27.070;2024-01-07T01:38:36;6.5;;;3.2;;
63690;SDS011;49837;57.280;27.070;2024-01-07T01:39:39;7.1;;;3.4;;
63690;SDS011;49837;57.280;27.070;2024-01-07T01:40:40;7.3;;;3.5;;
63690;SDS011;49837;57.280;27.070;2024-01-07T01:41:40;5.7;;;3.2;;
63690;SDS011;49837;57.280;27.070;2024-01-07T01:42:42;7.5;;;3.4;;
63690;SDS011;49837;57.280;27.070;2024-01-07T01:43:40;8.9;;;3.7;;
63690;SDS011;49837;57.280;27.070;2024-01-07T01:44:41;8.9;;;3.5;;
63690;SDS011;49837;57.280;27.070;2024-01-07T01:45:41;8.1;;;3.4;;
63690;SDS011;49837;57.280;27.070;2024-01-07T01:46:42;7.7;;;3.6;;
63690;SDS011;49837;57.280;27.070;2024-01-07T01:47:42;7.0;;;3.5;;
63690;SDS011;49837;57.280;27.070;2024-01-07T01:48:42;6.3;;;3.0;;
63690;SDS011;49837;57.280;27.070;2024-01-07T01:49:43;7.4;;;3.2;;
63690;SDS011;49837;57.280;27.070;2024-01-07T01:50:43;8.8;;;3.1;;
63690;SDS011;49837;57.280;27.070;2024-01-07T01:51:43;5.6;;;3.2;;
63690;SDS011;49837;57.280;27.070;2024-01-07T01:52:47;8.3;;;3.7;;
63690;SDS011;49837;57.280;27.070;2024-01-07T01:53:45;6.6;;;3.3;;
63690;SDS011;49837;57.280;27.070;2024-01-07T01:54:46;6.5;;;3.0;;
63690;SDS011;49837;57.280;27.070;2024-01-07T01:55:46;8.0;;;3.1;;
63690;SDS011;49837;57.280;27.070;2024-01-07T01:56:47;6.0;;;2.9;;
63690;SDS011;49837;57.280;27.070;2024-01-07T01:57:47;8.2;;;3.3;;
63690;SDS011;49837;57.280;27.070;2024-01-07T01:58:47;7.6;;;3.3;;
63690;SDS011;49837;57.280;27.070;2024-01-07T01:59:48;6.3;;;3.3;;
63690;SDS011;49837;57.280;27.070;2024-01-07T02:00:48;10.1;;;3.7;;
63690;SDS011;49837;57.280;27.070;2024-01-07T02:01:48;7.8;;;3.0;;
63690;SDS011;49837;57.280;27.070;2024-01-07T02:02:49;6.6;;;3.2;;
63690;SDS011;49837;57.280;27.070;2024-01-07T02:03:49;7.7;;;3.2;;
63690;SDS011;49837;57.280;27.070;2024-01-07T02:04:49;7.8;;;3.1;;
63690;SDS011;49837;57.280;27.070;2024-01-07T02:05:50;7.0;;;3.5;;
63690;SDS011;49837;57.280;27.070;2024-01-07T02:06:50;7.4;;;3.2;;
63690;SDS011;49837;57.280;27.070;2024-01-07T02:07:50;7.6;;;3.3;;
63690;SDS011;49837;57.280;27.070;2024-01-07T02:08:51;8.2;;;3.6;;
63690;SDS011;49837;57.280;27.070;2024-01-07T02:09:51;7.5;;;3.4;;
63690;SDS011;49837;57.280;27.070;2024-01-07T02:10:51;8.3;;;3.3;;
63690;SDS011;49837;57.280;27.070;2024-01-07T02:12:04;8.3;;;3.3;;
63690;SDS011;49837;57.280;27.070;2024-01-07T02:12:52;5.9;;;3.1;;
63690;SDS011;49837;57.280;27.070;2024-01-07T02:13:53;7.1;;;3.0;;
63690;SDS011;49837;57.280;27.070;2024-01-07T02:14:53;7.7;;;3.3;;
63690;SDS011;49837;57.280;27.070;2024-01-07T02:15:53;6.3;;;3.2;;
63690;SDS011;49837;57.280;27.070;2024-01-07T02:16:53;7.9;;;3.4;;
63690;SDS011;49837;57.280;27.070;2024-01-07T02:17:54;8.4;;;3.1;;
63690;SDS011;49837;57.280;27.070;2024-01-07T02:18:54;5.0;;;2.7;;
63690;SDS011;49837;57.280;27.070;2024-01-07T02:19:55;5.0;;;2.7;;
63690;SDS011;49837;57.280;27.070;2024-01-07T02:20:55;6.3;;;3.0;;
63690;SDS011;49837;57.280;27.070;2024-01-07T02:21:55;6.6;;;3.2;;
63690;SDS011;49837;57.280;27.070;2024-01-07T02:22:56;6.2;;;2.9;;
63690;SDS011;49837;57.280;27.070;2024-01-07T02:23:56;5.8;;;2.8;;
63690;SDS011;49837;57.280;27.070;2024-01-07T02:24:56;4.9;;;2.7;;
63690;SDS011;49837;57.280;27.070;2024-01-07T02:25:57;6.6;;;2.9;;
63690;SDS011;49837;57.280;27.070;2024-01-07T02:26:57;8.8;;;3.3;;
63690;SDS011;49837;57.280;27.070;2024-01-07T02:27:57;7.6;;;3.7;;
63690;SDS011;49837;57.280;27.070;2024-01-07T02:28:58;7.3;;;3.2;;
63690;SDS011;49837;57.280;27.070;2024-01-07T02:29:58;8.2;;;3.5;;
63690;SDS011;49837;57.280;27.070;2024-01-07T02:30:58;6.3;;;2.7;;
63690;SDS011;49837;57.280;27.070;2024-01-07T02:31:59;6.2;;;3.0;;
63690;SDS011;49837;57.280;27.070;2024-01-07T02:33:02;5.6;;;2.7;;
63690;SDS011;49837;57.280;27.070;2024-01-07T02:34:00;6.2;;;2.7;;
63690;SDS011;49837;57.280;27.070;2024-01-07T02:35:00;5.2;;;2.7;;
63690;SDS011;49837;57.280;27.070;2024-01-07T02:36:01;7.9;;;3.3;;
63690;SDS011;49837;57.280;27.070;2024-01-07T02:37:01;6.6;;;3.0;;
63690;SDS011;49837;57.280;27.070;2024-01-07T02:38:01;6.0;;;2.9;;
63690;SDS011;49837;57.280;27.070;2024-01-07T02:39:02;7.9;;;3.1;;
63690;SDS011;49837;57.280;27.070;2024-01-07T02:40:02;6.7;;;3.2;;
63690;SDS011;49837;57.280;27.070;2024-01-07T02:41:02;6.7;;;3.0;;
63690;SDS011;49837;57.280;27.070;2024-01-07T02:42:03;7.2;;;3.4;;
63690;SDS011;49837;57.280;27.070;2024-01-07T02:43:03;5.7;;;2.9;;
63690;SDS011;49837;57.280;27.070;2024-01-07T02:44:03;6.2;;;3.0;;
63690;SDS011;49837;57.280;27.070;2024-01-07T02:45:04;8.2;;;3.1;;
63690;SDS011;49837;57.280;27.070;2024-01-07T02:46:04;6.9;;;3.0;;
63690;SDS011;49837;57.280;27.070;2024-01-07T02:47:04;5.8;;;2.9;;
63690;SDS011;49837;57.280;27.070;2024-01-07T02:48:05;6.5;;;3.4;;
63690;SDS011;49837;57.280;27.070;2024-01-07T02:49:05;6.6;;;3.5;;
63690;SDS011;49837;57.280;27.070;2024-01-07T02:50:06;7.0;;;3.1;;
63690;SDS011;49837;57.280;27.070;2024-01-07T02:51:06;6.1;;;3.0;;
63690;SDS011;49837;57.280;27.070;2024-01-07T02:52:06;5.4;;;2.6;;
63690;SDS011;49837;57.280;27.070;2024-01-07T02:53:06;7.7;;;3.6;;
63690;SDS011;49837;57.280;27.070;2024-01-07T02:54:07;5.7;;;3.0;;
63690;SDS011;49837;57.280;27.070;2024-01-07T02:55:07;7.7;;;3.5;;
63690;SDS011;49837;57.280;27.070;2024-01-07T02:56:07;6.3;;;2.9;;
63690;SDS011;49837;57.280;27.070;2024-01-07T02:57:08;6.3;;;2.9;;
63690;SDS011;49837;57.280;27.070;2024-01-07T02:58:08;6.4;;;3.4;;
63690;SDS011;49837;57.280;27.070;2024-01-07T02:59:09;8.4;;;3.3;;
63690;SDS011;49837;57.280;27.070;2024-01-07T03:00:09;7.2;;;3.2;;
63690;SDS011;49837;57.280;27.070;2024-01-07T03:01:09;6.5;;;3.0;;
63690;SDS011;49837;57.280;27.070;2024-01-07T03:02:10;6.8;;;2.8;;
63690;SDS011;49837;57.280;27.070;2024-01-07T03:03:10;7.6;;;3.4;;
63690;SDS011;49837;57.280;27.070;2024-01-07T03:04:11;6.3;;;2.9;;
63690;SDS011;49837;57.280;27.070;2024-01-07T03:05:11;6.1;;;3.0;;
63690;SDS011;49837;57.280;27.070;2024-01-07T03:06:11;7.7;;;3.2;;
63690;SDS011;49837;57.280;27.070;2024-01-07T03:07:11;6.0;;;3.0;;
63690;SDS011;49837;57.280;27.070;2024-01-07T03:08:11;8.5;;;3.5;;
63690;SDS011;49837;57.280;27.070;2024-01-07T03:09:12;8.6;;;3.7;;
63690;SDS011;49837;57.280;27.070;2024-01-07T03:10:12;5.0;;;2.7;;
63690;SDS011;49837;57.280;27.070;2024-01-07T03:11:13;6.8;;;3.0;;
63690;SDS011;49837;57.280;27.070;2024-01-07T03:12:14;6.3;;;2.7;;
63690;SDS011;49837;57.280;27.070;2024-01-07T03:13:14;6.6;;;3.1;;
63690;SDS011;49837;57.280;27.070;2024-01-07T03:14:15;6.6;;;2.9;;
63690;SDS011;49837;57.280;27.070;2024-01-07T03:15:15;7.6;;;3.2;;
63690;SDS011;49837;57.280;27.070;2024-01-07T03:16:21;7.7;;;3.0;;
63690;SDS011;49837;57.280;27.070;2024-01-07T03:17:20;6.0;;;3.0;;
63690;SDS011;49837;57.280;27.070;2024-01-07T03:18:20;6.1;;;2.9;;
63690;SDS011;49837;57.280;27.070;2024-01-07T03:19:20;7.1;;;3.1;;
63690;SDS011;49837;57.280;27.070;2024-01-07T03:20:21;8.0;;;3.4;;
63690;SDS011;49837;57.280;27.070;2024-01-07T03:21:22;5.1;;;2.8;;
63690;SDS011;49837;57.280;27.070;2024-01-07T03:22:23;7.1;;;3.7;;
63690;SDS011;49837;57.280;27.070;2024-01-07T03:23:22;6.7;;;3.2;;
63690;SDS011;49837;57.280;27.070;2024-01-07T03:24:23;8.3;;;3.1;;
63690;SDS011;49837;57.280;27.070;2024-01-07T03:25:23;7.1;;;3.1;;
63690;SDS011;49837;57.280;27.070;2024-01-07T03:26:24;7.5;;;2.8;;
63690;SDS011;49837;57.280;27.070;2024-01-07T03:27:26;8.4;;;3.3;;
63690;SDS011;49837;57.280;27.070;2024-01-07T03:28:26;6.0;;;3.1;;
63690;SDS011;49837;57.280;27.070;2024-01-07T03:29:27;6.3;;;3.3;;
63690;SDS011;49837;57.280;27.070;2024-01-07T03:30:27;7.0;;;2.9;;
63690;SDS011;49837;57.280;27.070;2024-01-07T03:31:27;6.2;;;3.0;;
63690;SDS011;49837;57.280;27.070;2024-01-07T03:32:28;7.5;;;3.4;;
63690;SDS011;49837;57.280;27.070;2024-01-07T03:33:28;8.1;;;3.4;;
63690;SDS011;49837;57.280;27.070;2024-01-07T03:34:29;7.1;;;3.0;;
63690;SDS011;49837;57.280;27.070;2024-01-07T03:35:29;7.1;;;3.1;;
63690;SDS011;49837;57.280;27.070;2024-01-07T03:36:29;5.4;;;3.0;;
63690;SDS011;49837;57.280;27.070;2024-01-07T03:37:30;6.3;;;3.0;;
63690;SDS011;49837;57.280;27.070;2024-01-07T03:38:30;5.7;;;3.1;;
63690;SDS011;49837;57.280;27.070;2024-01-07T03:39:33;6.8;;;2.9;;
63690;SDS011;49837;57.280;27.070;2024-01-07T03:40:31;6.8;;;3.1;;
63690;SDS011;49837;57.280;27.070;2024-01-07T03:41:31;6.4;;;3.2;;
63690;SDS011;49837;57.280;27.070;2024-01-07T03:42:32;6.5;;;3.2;;
63690;SDS011;49837;57.280;27.070;2024-01-07T03:43:32;5.5;;;2.7;;
63690;SDS011;49837;57.280;27.070;2024-01-07T03:44:32;6.3;;;2.7;;
63690;SDS011;49837;57.280;27.070;2024-01-07T03:45:33;7.0;;;2.9;;
63690;SDS011;49837;57.280;27.070;2024-01-07T03:46:33;6.6;;;3.4;;
63690;SDS011;49837;57.280;27.070;2024-01-07T03:47:33;7.0;;;3.1;;
63690;SDS011;49837;57.280;27.070;2024-01-07T03:48:34;7.0;;;3.3;;
63690;SDS011;49837;57.280;27.070;2024-01-07T03:49:36;9.6;;;3.3;;
63690;SDS011;49837;57.280;27.070;2024-01-07T03:50:35;9.5;;;3.3;;
63690;SDS011;49837;57.280;27.070;2024-01-07T03:51:35;7.7;;;3.1;;
63690;SDS011;49837;57.280;27.070;2024-01-07T03:52:35;6.6;;;3.1;;
63690;SDS011;49837;57.280;27.070;2024-01-07T03:53:36;7.8;;;3.4;;
63690;SDS011;49837;57.280;27.070;2024-01-07T03:54:36;7.2;;;3.3;;
63690;SDS011;49837;57.280;27.070;2024-01-07T03:55:36;8.7;;;3.2;;
63690;SDS011;49837;57.280;27.070;2024-01-07T03:56:37;7.6;;;3.0;;
63690;SDS011;49837;57.280;27.070;2024-01-07T03:57:37;5.4;;;2.5;;
63690;SDS011;49837;57.280;27.070;2024-01-07T03:58:37;5.4;;;3.2;;
63690;SDS011;49837;57.280;27.070;2024-01-07T03:59:38;7.0;;;3.1;;
63690;SDS011;49837;57.280;27.070;2024-01-07T04:00:38;6.8;;;3.4;;
63690;SDS011;49837;57.280;27.070;2024-01-07T04:01:39;7.0;;;3.0;;
63690;SDS011;49837;57.280;27.070;2024-01-07T04:02:39;6.9;;;3.4;;
63690;SDS011;49837;57.280;27.070;2024-01-07T04:03:40;8.3;;;3.6;;
63690;SDS011;49837;57.280;27.070;2024-01-07T04:04:40;6.7;;;3.6;;
63690;SDS011;49837;57.280;27.070;2024-01-07T04:05:40;9.6;;;3.8;;
63690;SDS011;49837;57.280;27.070;2024-01-07T04:06:41;7.1;;;3.7;;
63690;SDS011;49837;57.280;27.070;2024-01-07T04:07:41;7.6;;;3.4;;
63690;SDS011;49837;57.280;27.070;2024-01-07T04:08:41;8.8;;;3.4;;
63690;SDS011;49837;57.280;27.070;2024-01-07T04:09:42;8.3;;;3.6;;
63690;SDS011;49837;57.280;27.070;2024-01-07T04:10:42;8.0;;;3.3;;
63690;SDS011;49837;57.280;27.070;2024-01-07T04:11:42;8.2;;;4.0;;
63690;SDS011;49837;57.280;27.070;2024-01-07T04:12:43;7.2;;;3.1;;
63690;SDS011;49837;57.280;27.070;2024-01-07T04:13:43;8.0;;;3.1;;
63690;SDS011;49837;57.280;27.070;2024-01-07T04:14:44;7.9;;;3.2;;
63690;SDS011;49837;57.280;27.070;2024-01-07T04:15:44;6.4;;;3.5;;
63690;SDS011;49837;57.280;27.070;2024-01-07T04:16:44;7.6;;;3.5;;
63690;SDS011;49837;57.280;27.070;2024-01-07T04:17:45;10.2;;;3.6;;
63690;SDS011;49837;57.280;27.070;2024-01-07T04:18:46;11.4;;;4.4;;
63690;SDS011;49837;57.280;27.070;2024-01-07T04:19:49;21.7;;;8.1;;
63690;SDS011;49837;57.280;27.070;2024-01-07T04:20:50;21.6;;;7.3;;
63690;SDS011;49837;57.280;27.070;2024-01-07T04:21:50;30.9;;;10.4;;
63690;SDS011;49837;57.280;27.070;2024-01-07T04:22:51;27.7;;;8.6;;
63690;SDS011;49837;57.280;27.070;2024-01-07T04:23:51;31.4;;;8.8;;
63690;SDS011;49837;57.280;27.070;2024-01-07T04:24:51;38.0;;;11.4;;
63690;SDS011;49837;57.280;27.070;2024-01-07T04:25:52;43.2;;;12.2;;
63690;SDS011;49837;57.280;27.070;2024-01-07T04:26:52;58.9;;;16.8;;
63690;SDS011;49837;57.280;27.070;2024-01-07T04:27:52;59.3;;;16.6;;
63690;SDS011;49837;57.280;27.070;2024-01-07T04:28:53;65.7;;;19.7;;
63690;SDS011;49837;57.280;27.070;2024-01-07T04:29:53;59.3;;;17.9;;
63690;SDS011;49837;57.280;27.070;2024-01-07T04:30:54;55.8;;;17.5;;
63690;SDS011;49837;57.280;27.070;2024-01-07T04:31:54;56.0;;;17.6;;
63690;SDS011;49837;57.280;27.070;2024-01-07T04:32:54;43.3;;;15.4;;
63690;SDS011;49837;57.280;27.070;2024-01-07T04:33:55;44.7;;;15.5;;
63690;SDS011;49837;57.280;27.070;2024-01-07T04:34:55;39.5;;;17.4;;
63690;SDS011;49837;57.280;27.070;2024-01-07T04:35:56;47.4;;;17.7;;
63690;SDS011;49837;57.280;27.070;2024-01-07T04:36:56;53.5;;;19.4;;
63690;SDS011;49837;57.280;27.070;2024-01-07T04:37:56;54.2;;;17.3;;
63690;SDS011;49837;57.280;27.070;2024-01-07T04:38:57;44.0;;;15.3;;
63690;SDS011;49837;57.280;27.070;2024-01-07T04:39:57;45.2;;;15.0;;
63690;SDS011;49837;57.280;27.070;2024-01-07T04:40:58;38.7;;;12.0;;
63690;SDS011;49837;57.280;27.070;2024-01-07T04:41:58;26.3;;;10.0;;
63690;SDS011;49837;57.280;27.070;2024-01-07T04:42:58;26.9;;;10.3;;
63690;SDS011;49837;57.280;27.070;2024-01-07T04:43:59;37.0;;;11.3;;
63690;SDS011;49837;57.280;27.070;2024-01-07T04:45:00;26.6;;;9.8;;
63690;SDS011;49837;57.280;27.070;2024-01-07T04:46:00;27.3;;;9.4;;
63690;SDS011;49837;57.280;27.070;2024-01-07T04:47:01;23.2;;;8.8;;
63690;SDS011;49837;57.280;27.070;2024-01-07T04:48:01;22.4;;;9.0;;
63690;SDS011;49837;57.280;27.070;2024-01-07T04:49:01;25.6;;;10.5;;
63690;SDS011;49837;57.280;27.070;2024-01-07T04:50:02;23.1;;;9.2;;
63690;SDS011;49837;57.280;27.070;2024-01-07T04:51:02;24.2;;;11.0;;
63690;SDS011;49837;57.280;27.070;2024-01-07T04:52:03;20.8;;;9.3;;
63690;SDS011;49837;57.280;27.070;2024-01-07T04:53:04;19.7;;;10.0;;
63690;SDS011;49837;57.280;27.070;2024-01-07T04:54:04;25.5;;;10.6;;
63690;SDS011;49837;57.280;27.070;2024-01-07T04:55:05;24.3;;;9.7;;
63690;SDS011;49837;57.280;27.070;2024-01-07T04:56:05;23.9;;;9.8;;
63690;SDS011;49837;57.280;27.070;2024-01-07T04:57:06;20.0;;;9.3;;
63690;SDS011;49837;57.280;27.070;2024-01-07T04:58:06;15.9;;;8.0;;
63690;SDS011;49837;57.280;27.070;2024-01-07T04:59:06;21.8;;;9.1;;
63690;SDS011;49837;57.280;27.070;2024-01-07T05:00:07;21.9;;;9.5;;
63690;SDS011;49837;57.280;27.070;2024-01-07T05:01:07;21.6;;;10.3;;
63690;SDS011;49837;57.280;27.070;2024-01-07T05:02:08;21.7;;;9.8;;
63690;SDS011;49837;57.280;27.070;2024-01-07T05:03:08;15.6;;;8.8;;
63690;SDS011;49837;57.280;27.070;2024-01-07T05:04:08;17.0;;;8.0;;
63690;SDS011;49837;57.280;27.070;2024-01-07T05:05:09;18.0;;;7.5;;
63690;SDS011;49837;57.280;27.070;2024-01-07T05:06:09;12.6;;;6.7;;
63690;SDS011;49837;57.280;27.070;2024-01-07T05:07:09;18.4;;;8.1;;
63690;SDS011;49837;57.280;27.070;2024-01-07T05:08:10;15.1;;;7.8;;
63690;SDS011;49837;57.280;27.070;2024-01-07T05:09:10;16.9;;;7.8;;
63690;SDS011;49837;57.280;27.070;2024-01-07T05:10:11;17.8;;;8.5;;
63690;SDS011;49837;57.280;27.070;2024-01-07T05:11:11;17.0;;;8.5;;
63690;SDS011;49837;57.280;27.070;2024-01-07T05:12:11;19.8;;;8.3;;
63690;SDS011;49837;57.280;27.070;2024-01-07T05:13:12;23.3;;;9.8;;
63690;SDS011;49837;57.280;27.070;2024-01-07T05:14:12;20.5;;;8.8;;
63690;SDS011;49837;57.280;27.070;2024-01-07T05:15:13;20.2;;;8.7;;
63690;SDS011;49837;57.280;27.070;2024-01-07T05:16:19;21.7;;;9.3;;
63690;SDS011;49837;57.280;27.070;2024-01-07T05:17:17;19.8;;;9.7;;
63690;SDS011;49837;57.280;27.070;2024-01-07T05:18:17;24.5;;;10.4;;
63690;SDS011;49837;57.280;27.070;2024-01-07T05:19:17;22.1;;;9.9;;
63690;SDS011;49837;57.280;27.070;2024-01-07T05:20:18;22.9;;;9.5;;
63690;SDS011;49837;57.280;27.070;2024-01-07T05:21:18;26.6;;;11.1;;
63690;SDS011;49837;57.280;27.070;2024-01-07T05:22:19;27.4;;;12.1;;
63690;SDS011;49837;57.280;27.070;2024-01-07T05:23:20;24.8;;;10.6;;
63690;SDS011;49837;57.280;27.070;2024-01-07T05:24:20;28.6;;;11.9;;
63690;SDS011;49837;57.280;27.070;2024-01-07T05:25:21;22.7;;;9.4;;
63690;SDS011;49837;57.280;27.070;2024-01-07T05:26:21;21.2;;;9.0;;
63690;SDS011;49837;57.280;27.070;2024-01-07T05:27:21;19.9;;;8.5;;
63690;SDS011;49837;57.280;27.070;2024-01-07T05:28:22;20.0;;;8.3;;
63690;SDS011;49837;57.280;27.070;2024-01-07T05:29:23;22.1;;;9.0;;
63690;SDS011;49837;57.280;27.070;2024-01-07T05:30:23;20.3;;;8.4;;
63690;SDS011;49837;57.280;27.070;2024-01-07T05:31:23;22.0;;;9.1;;
63690;SDS011;49837;57.280;27.070;2024-01-07T05:32:24;19.3;;;8.9;;
63690;SDS011;49837;57.280;27.070;2024-01-07T05:33:25;20.5;;;9.7;;
63690;SDS011;49837;57.280;27.070;2024-01-07T05:34:26;21.4;;;9.4;;
63690;SDS011;49837;57.280;27.070;2024-01-07T05:35:26;19.4;;;8.9;;
63690;SDS011;49837;57.280;27.070;2024-01-07T05:36:26;19.3;;;9.1;;
63690;SDS011;49837;57.280;27.070;2024-01-07T05:37:26;18.6;;;8.4;;
63690;SDS011;49837;57.280;27.070;2024-01-07T05:38:27;18.9;;;8.6;;
63690;SDS011;49837;57.280;27.070;2024-01-07T05:39:28;21.9;;;9.2;;
63690;SDS011;49837;57.280;27.070;2024-01-07T05:40:29;18.5;;;7.9;;
63690;SDS011;49837;57.280;27.070;2024-01-07T05:41:29;22.9;;;9.1;;
63690;SDS011;49837;57.280;27.070;2024-01-07T05:42:30;20.6;;;8.5;;
63690;SDS011;49837;57.280;27.070;2024-01-07T05:43:30;17.2;;;8.3;;
63690;SDS011;49837;57.280;27.070;2024-01-07T05:44:30;22.5;;;8.6;;
63690;SDS011;49837;57.280;27.070;2024-01-07T05:45:31;20.3;;;8.4;;
63690;SDS011;49837;57.280;27.070;2024-01-07T05:46:31;24.8;;;10.4;;
63690;SDS011;49837;57.280;27.070;2024-01-07T05:47:31;22.2;;;9.6;;
63690;SDS011;49837;57.280;27.070;2024-01-07T05:48:44;19.6;;;9.0;;
63690;SDS011;49837;57.280;27.070;2024-01-07T05:49:33;21.9;;;9.8;;
63690;SDS011;49837;57.280;27.070;2024-01-07T05:50:33;20.1;;;9.7;;
63690;SDS011;49837;57.280;27.070;2024-01-07T05:51:34;23.1;;;9.9;;
63690;SDS011;49837;57.280;27.070;2024-01-07T05:52:35;24.7;;;11.3;;
63690;SDS011;49837;57.280;27.070;2024-01-07T05:53:36;27.0;;;11.5;;
63690;SDS011;49837;57.280;27.070;2024-01-07T05:54:36;32.0;;;13.1;;
63690;SDS011;49837;57.280;27.070;2024-01-07T05:55:37;25.4;;;12.7;;
63690;SDS011;49837;57.280;27.070;2024-01-07T05:56:40;35.2;;;14.8;;
63690;SDS011;49837;57.280;27.070;2024-01-07T05:57:38;25.9;;;12.5;;
63690;SDS011;49837;57.280;27.070;2024-01-07T05:58:38;24.1;;;10.8;;
63690;SDS011;49837;57.280;27.070;2024-01-07T05:59:39;27.8;;;11.9;;
63690;SDS011;49837;57.280;27.070;2024-01-07T06:00:39;18.7;;;9.0;;
63690;SDS011;49837;57.280;27.070;2024-01-07T06:01:40;15.8;;;7.6;;
63690;SDS011;49837;57.280;27.070;2024-01-07T06:02:40;20.0;;;8.7;;
63690;SDS011;49837;57.280;27.070;2024-01-07T06:03:40;31.9;;;12.8;;
63690;SDS011;49837;57.280;27.070;2024-01-07T06:04:41;17.5;;;8.3;;
63690;SDS011;49837;57.280;27.070;2024-01-07T06:05:41;16.2;;;7.5;;